This is the latest recevied weather packets stored in our database for station/object IZ2WMD-13. If no packets are shown the sender has not sent any weather packets the latest 10 day(s).
| Time | Temp. | Humidity | Pressure | Rain* | Wind** | Luminosity | Snow |
|---|---|---|---|---|---|---|---|
| 1777947674 | 13.33° C | 72% | 1011.8 hPa | - | - | - | - |
| 1777945259 | 12.78° C | 71% | 1012.4 hPa | - | - | - | - |
| 1777944053 | 12.78° C | 73% | 1012.6 hPa | - | - | - | - |
| 1777942848 | 12.78° C | 69% | 1012.7 hPa | - | - | - | - |
| 1777940439 | 12.22° C | 73% | 1013.6 hPa | - | - | - | - |
| 1777939234 | 12.22° C | 72% | 1013.9 hPa | - | - | - | - |
| 1777938029 | 12.78° C | 67% | 1014 hPa | - | - | - | - |
| 1777934415 | 13.89° C | 62% | 1014.4 hPa | - | - | - | - |
| 1777932005 | 15° C | 56% | 1014.6 hPa | - | - | - | - |
| 1777930800 | 13.89° C | 62% | 1014.9 hPa | - | - | - | - |
| 1777929596 | 13.89° C | 60% | 1015.1 hPa | - | - | - | - |
| 1777928391 | 14.44° C | 56% | 1015 hPa | - | - | - | - |
| 1777925981 | 13.89° C | 59% | 1015 hPa | - | - | - | - |
| 1777924776 | 15° C | 54% | 1014.8 hPa | - | - | - | - |
| 1777923571 | 16.11° C | 49% | 1014.5 hPa | - | - | - | - |
| 1777922367 | 16.67° C | 51% | 1014.5 hPa | - | - | - | - |
| 1777921162 | 16.67° C | 50% | 1014.3 hPa | - | - | - | - |
| 1777919957 | 17.22° C | 47% | 1013.9 hPa | - | - | - | - |
| 1777916343 | 19.44° C | 42% | 1013.7 hPa | - | - | - | - |
| 1777915138 | 20° C | 40% | 1013.7 hPa | - | - | - | - |
| 1777913933 | 20.56° C | 37% | 1013.7 hPa | - | - | - | - |
| 1777912728 | 21.67° C | 34% | 1013.6 hPa | - | - | - | - |
| 1777911524 | 23.33° C | 30% | 1013.5 hPa | - | - | - | - |
| 1777910319 | 22.78° C | 31% | 1013.6 hPa | - | - | - | - |
| 1777909114 | 22.78° C | 31% | 1013.7 hPa | - | - | - | - |
* Rain since midnight (hover to see other rain measurements)
** Current wind speed in m/s (hover to see current wind gust speed)